Latest Weather Observations for Roebourne Airport

IDW60801

Issued at 6:32 pm WST Sunday 29 March 2015 (issued every 30 minutes, with the page automatically refreshed every 10 minutes)

About weather observations | Map of weather stations | Latest weather observations for WA | Other Formats
Station Details ID: 004090 Name: ROEBOURNE AERO Lat: -20.76 Lon: 117.16 Height: 10.7 m
Data from the previous 72 hours. | See also: Recent months at Roebourne Airport
Date/Time
WST
Temp
°C
App
Temp
°C
Dew
Point
Rel
Hum
%
Delta-T
°C
Wind Press
QNH
hPa
Press
MSL
hPa
Rain
since 9 am
mm
Dir
 
Spd
km/h
Gust
km/h
Spd
kts
Gust
kts
29/06:30pm 30.2 30.1 23.6 67 4.6 NE 30 41 16 22 1012.4 1012.4 0.0
29/06:00pm 30.5 29.9 23.4 66 4.9 NE 32 41 17 22 1011.7 1011.7 0.0
29/05:30pm 31.0 29.6 22.9 62 5.6 NE 35 44 19 24 1011.3 1011.3 0.0
29/05:00pm 32.3 30.3 21.8 54 7.1 NE 35 50 19 27 1010.9 1010.9 0.0
29/04:30pm 33.0 30.6 21.8 51 7.6 NE 37 48 20 26 1010.8 1010.8 0.0
29/04:00pm 33.7 32.2 22.1 50 7.9 NE 33 44 18 24 1010.6 1010.6 0.0
29/03:30pm 34.1 32.5 21.9 49 8.3 NNE 33 44 18 24 1010.4 1010.4 0.0
29/03:00pm 34.5 33.3 22.2 48 8.4 NNE 32 41 17 22 1010.2 1010.2 0.0
29/02:30pm 35.5 34.6 22.1 45 9.2 NNE 30 39 16 21 1010.6 1010.6 0.0
29/02:00pm 35.1 34.2 22.1 47 8.9 NNE 30 37 16 20 1010.6 1010.6 0.0
29/01:30pm 34.9 34.0 21.5 45 9.1 NNE 28 37 15 20 1010.8 1010.8 0.0
29/01:00pm 36.2 35.2 21.2 41 10.2 NE 28 41 15 22 1011.0 1011.0 0.0
29/12:30pm 36.2 35.0 20.8 40 10.4 NE 28 43 15 23 1011.6 1011.6 0.0
29/12:00pm 35.6 34.3 20.7 41 10.0 NE 28 39 15 21 1012.3 1012.3 0.0
29/11:30am 35.4 34.6 19.3 38 10.7 ENE 22 33 12 18 1012.6 1012.6 0.0
29/11:00am 34.5 34.3 21.2 46 9.0 ENE 24 33 13 18 1013.4 1013.4 0.0
29/10:30am 34.6 34.2 21.6 46 8.8 ENE 26 35 14 19 1013.9 1013.8 0.0
29/10:00am 34.3 34.3 21.0 45 9.0 ENE 22 30 12 16 1013.9 1013.8 0.0
29/09:30am 34.0 34.8 20.7 45 8.9 E 17 22 9 12 1013.8 1013.7 0.0
29/09:00am 33.0 33.9 20.9 49 8.1 E 17 20 9 11 1013.4 1013.4 0.0
29/08:30am 31.8 33.2 21.9 55 6.7 ENE 17 20 9 11 1013.4 1013.4 0.0
29/08:00am 30.7 31.7 21.8 59 6.0 ENE 19 24 10 13 1013.1 1013.1 0.0
29/07:30am 30.0 31.3 21.7 61 5.6 E 17 20 9 11 1013.1 1013.1 0.0
29/07:00am 27.8 30.5 22.1 71 3.8 E 11 15 6 8 1012.9 1012.9 0.0
29/06:30am 25.3 27.3 20.8 76 3.0 ESE 11 11 6 6 1012.4 1012.4 0.0
29/06:00am 25.2 27.1 20.5 75 3.1 ESE 11 13 6 7 1012.1 1012.1 0.0
29/05:30am 25.2 27.2 20.0 73 3.4 ESE 9 11 5 6 1011.8 1011.8 0.0
29/05:00am 25.2 26.3 19.6 71 3.6 E 13 15 7 8 1011.8 1011.8 0.0
29/04:30am 25.0 27.2 19.1 70 3.8 SE 6 7 3 4 1011.4 1011.4 0.0
29/04:00am 25.4 27.4 20.0 72 3.5 E 9 11 5 6 1011.3 1011.3 0.0
29/03:30am 25.3 26.7 18.7 67 4.2 ENE 9 15 5 8 1011.2 1011.2 0.0
29/03:00am 25.2 28.2 18.4 66 4.3 CALM 0 0 0 0 1010.9 1010.9 0.0
29/02:30am 25.4 28.3 18.3 65 4.5 CALM 0 0 0 0 1011.0 1011.0 0.0
29/02:00am 26.9 29.7 20.5 68 4.2 WNW 6 6 3 3 1011.2 1011.2 0.0
29/01:30am 26.9 29.3 20.0 66 4.5 N 7 7 4 4 1011.5 1011.5 0.0
29/01:00am 26.9 29.2 19.8 65 4.6 N 7 9 4 5 1011.8 1011.8 0.0
29/12:30am 27.7 30.2 19.8 62 5.1 WNW 6 6 3 3 1011.9 1011.9 0.0
29/12:00am 27.9 30.2 19.9 61 5.2 WNW 7 11 4 6 1012.3 1012.3 0.0
 
Date/Time
WST
Temp
°C
App
Temp
°C
Dew
Point
Rel
Hum
%
Delta-T
°C
Wind Press
QNH
hPa
Press
MSL
hPa
Rain
since 9 am
mm
Dir
 
Spd
km/h
Gust
km/h
Spd
kts
Gust
kts
28/11:30pm 28.5 32.1 19.7 59 5.7 CALM 0 0 0 0 1012.5 1012.5 0.0
28/11:00pm 28.9 31.4 19.8 58 6.0 SSW 6 6 3 3 1012.6 1012.6 0.0
28/10:30pm 28.5 30.9 19.7 59 5.7 SW 6 9 3 5 1013.0 1013.0 0.0
28/10:00pm 29.2 32.7 20.4 59 5.8 SW 2 7 1 4 1013.1 1013.1 0.0
28/09:30pm 30.0 32.4 20.8 57 6.1 WSW 9 11 5 6 1013.3 1013.3 0.0
28/09:00pm 29.6 32.9 21.8 63 5.3 WSW 7 11 4 6 1013.4 1013.4 0.0
28/08:30pm 29.1 32.6 22.1 66 4.7 NNE 7 11 4 6 1012.7 1012.7 0.0
28/08:00pm 29.6 32.0 21.5 61 5.4 NNE 11 13 6 7 1012.2 1012.2 0.0
28/07:30pm 30.3 32.3 19.9 53 6.8 N 9 11 5 6 1011.5 1011.5 0.0
28/07:00pm 30.7 33.1 20.0 52 7.1 N 7 9 4 5 1010.9 1010.9 0.0
28/06:30pm 31.7 32.0 18.7 46 8.4 N 15 19 8 10 1010.4 1010.4 0.0
28/06:00pm 32.5 31.7 17.9 41 9.4 N 19 24 10 13 1010.1 1010.1 0.0
28/05:30pm 33.4 31.1 16.7 36 10.6 N 24 30 13 16 1009.8 1009.8 0.0
28/05:00pm 34.0 31.6 15.4 32 11.6 N 22 26 12 14 1009.6 1009.6 0.0
28/04:30pm 35.2 33.2 16.5 33 11.9 N 22 30 12 16 1009.5 1009.5 0.0
28/04:00pm 35.9 34.4 18.5 36 11.4 N 24 32 13 17 1009.6 1009.6 0.0
28/03:30pm 35.8 32.5 17.0 32 12.1 NNE 30 35 16 19 1009.7 1009.7 0.0
28/03:00pm 37.9 34.3 13.2 23 15.2 NE 24 32 13 17 1009.7 1009.7 0.0
28/02:30pm 38.7 36.3 14.5 24 15.2 NE 20 32 11 17 1009.7 1009.7 0.0
28/02:00pm 37.5 34.2 14.1 24 14.5 NE 24 33 13 18 1010.2 1010.2 0.0
28/01:30pm 37.7 34.5 14.3 25 14.6 NE 24 35 13 19 1010.7 1010.7 0.0
28/01:00pm 37.6 33.8 14.8 25 14.3 NE 28 39 15 21 1011.1 1011.1 0.0
28/12:30pm 37.0 31.9 13.7 25 14.3 ENE 33 43 18 23 1011.7 1011.7 0.0
28/12:00pm 36.0 31.0 13.5 26 13.8 E 32 43 17 23 1012.2 1012.2 0.0
28/11:30am 36.5 31.5 13.9 26 13.9 E 33 43 18 23 1012.9 1012.9 0.0
28/11:00am 35.8 30.4 13.9 27 13.5 E 35 48 19 26 1013.3 1013.3 0.0
28/10:30am 35.3 29.8 13.5 27 13.3 E 35 48 19 26 1013.7 1013.6 0.0
28/10:00am 34.3 29.4 14.2 29 12.3 ESE 33 41 18 22 1013.9 1013.8 0.0
28/09:30am 33.3 28.8 14.8 32 11.4 ESE 32 41 17 22 1014.1 1014.0 0.0
28/09:00am 32.3 28.2 14.9 35 10.7 ESE 30 37 16 20 1014.3 1014.2 0.0
28/08:30am 31.0 27.1 15.4 38 9.6 ESE 30 39 16 21 1014.1 1014.0 0.0
28/08:00am 29.8 27.9 16.6 45 8.3 ESE 22 32 12 17 1014.2 1014.1 0.0
28/07:30am 28.0 26.9 17.2 52 6.8 ESE 19 24 10 13 1013.9 1013.8 0.0
28/07:00am 26.1 26.7 16.9 57 5.7 ESE 9 13 5 7 1013.8 1013.7 0.0
28/06:30am 24.0 24.7 16.0 61 4.9 SE 7 9 4 5 1013.6 1013.5 0.0
28/06:00am 24.5 24.4 16.0 59 5.2 ESE 11 13 6 7 1013.1 1013.1 0.0
28/05:30am 25.0 24.6 16.2 58 5.4 E 13 17 7 9 1012.9 1012.9 0.0
28/05:00am 25.6 24.8 16.2 56 5.8 ESE 15 17 8 9 1012.9 1012.9 0.0
28/04:30am 26.0 25.3 16.3 55 6.0 E 15 20 8 11 1012.6 1012.6 0.0
28/04:00am 26.4 25.5 16.9 56 5.9 E 17 20 9 11 1012.4 1012.4 0.0
28/03:30am 26.6 25.8 17.1 56 5.9 E 17 20 9 11 1012.5 1012.5 0.0
28/03:00am 26.6 26.3 18.2 60 5.3 ENE 17 20 9 11 1012.4 1012.4 0.0
28/02:30am 26.4 27.0 18.5 62 5.0 E 13 15 7 8 1012.6 1012.6 0.0
28/02:00am 26.2 27.9 18.6 63 4.8 E 7 11 4 6 1012.9 1012.9 0.0
28/01:30am 27.0 29.0 18.8 60 5.3 E 6 9 3 5 1012.9 1012.9 0.0
28/01:00am 27.3 28.7 18.6 59 5.6 ENE 9 11 5 6 1012.8 1012.8 0.0
28/12:30am 27.5 28.5 17.7 55 6.2 E 9 11 5 6 1013.1 1013.1 0.0
28/12:00am 28.0 29.1 17.2 52 6.8 E 7 11 4 6 1013.4 1013.4 0.0
 
Date/Time
WST
Temp
°C
App
Temp
°C
Dew
Point
Rel
Hum
%
Delta-T
°C
Wind Press
QNH
hPa
Press
MSL
hPa
Rain
since 9 am
mm
Dir
 
Spd
km/h
Gust
km/h
Spd
kts
Gust
kts
27/11:30pm 28.7 30.0 17.2 49 7.2 ENE 6 7 3 4 1013.3 1013.3 0.0
27/11:00pm 29.4 31.1 17.2 47 7.7 SE 4 7 2 4 1013.6 1013.5 0.0
27/10:30pm 29.8 30.6 17.3 47 7.9 SE 9 11 5 6 1013.9 1013.8 0.0
27/10:00pm 30.4 30.9 17.5 46 8.2 SSE 11 15 6 8 1014.0 1013.9 0.0
27/09:30pm 30.5 32.1 18.2 47 7.9 ESE 7 7 4 4 1014.1 1014.0 0.0
27/09:00pm 30.9 31.6 18.9 48 7.8 ESE 13 17 7 9 1014.3 1014.2 0.0
27/08:30pm 30.8 34.6 24.7 70 4.3 ESE 13 15 7 8 1014.1 1014.0 0.0
27/08:00pm 30.8 35.7 25.2 72 4.0 SE 9 11 5 6 1013.8 1013.7 0.0
27/07:30pm 30.7 35.9 25.1 72 3.9 SSE 7 11 4 6 1013.2 1013.2 0.0
27/07:00pm 30.8 33.8 24.7 70 4.3 ENE 17 22 9 12 1012.5 1012.5 0.0
27/06:30pm 31.0 33.3 23.4 64 5.2 NNE 17 20 9 11 1011.7 1011.7 0.0
27/06:00pm 31.7 32.1 21.8 55 6.7 NNE 22 30 12 16 1011.2 1011.2 0.0
27/05:30pm 33.3 31.9 19.7 44 9.0 NNE 26 32 14 17 1010.8 1010.8 0.0
27/05:00pm 34.2 32.0 17.8 37 10.6 NNE 26 33 14 18 1010.6 1010.6 0.0
27/04:30pm 35.2 32.1 16.5 33 11.9 N 28 33 15 18 1010.6 1010.6 0.0
27/04:00pm 36.8 33.0 14.7 26 13.8 NNE 28 35 15 19 1010.4 1010.4 0.0
27/03:30pm 37.7 34.1 14.3 25 14.6 NNE 26 33 14 18 1010.6 1010.6 0.0
27/03:00pm 37.9 35.2 14.5 25 14.6 NNE 22 30 12 16 1010.6 1010.6 0.0
27/02:30pm 39.0 36.5 14.1 23 15.5 NNE 20 26 11 14 1010.7 1010.7 0.0
27/02:00pm 38.8 37.2 13.9 22 15.5 NE 15 26 8 14 1010.9 1010.9 0.0
27/01:30pm 39.3 36.9 14.3 22 15.6 NE 20 28 11 15 1011.3 1011.3 0.0
27/01:00pm 38.2 35.3 14.1 24 15.0 ENE 22 30 12 16 1011.8 1011.8 0.0
27/12:30pm 38.1 35.4 14.6 24 14.7 ENE 22 33 12 18 1012.4 1012.4 0.0
27/12:00pm 37.8 34.4 13.7 23 14.9 ENE 24 32 13 17 1012.8 1012.8 0.0
27/11:30am 37.8 33.7 13.7 23 14.9 ENE 28 37 15 20 1013.2 1013.2 0.0
27/11:00am 36.8 33.0 12.3 23 14.8 ESE 24 37 13 20 1013.7 1013.6 0.0
27/10:30am 35.5 31.7 12.5 25 13.8 ESE 24 41 13 22 1014.1 1014.0 0.0
27/10:00am 34.7 30.3 13.0 27 13.1 ESE 28 37 15 20 1014.5 1014.4 0.0
27/09:30am 33.3 28.7 12.3 28 12.5 ESE 28 35 15 19 1014.8 1014.7 0.0
27/09:00am 32.5 28.0 12.7 30 11.8 ESE 28 35 15 19 1015.0 1014.9 0.0
27/08:30am 31.4 27.7 12.7 32 11.1 ESE 24 32 13 17 1014.9 1014.8 0.0
27/08:00am 30.6 27.7 13.0 34 10.5 ESE 20 28 11 15 1015.0 1014.9 0.0
27/07:30am 30.3 28.6 13.6 36 10.0 ESE 15 20 8 11 1014.8 1014.7 0.0
27/07:00am 27.2 27.0 14.6 46 7.6 SE 9 11 5 6 1014.6 1014.5 0.0
27/06:30am 24.8 24.4 14.0 51 6.4 SE 9 11 5 6 1014.5 1014.4 0.0
27/06:00am 25.0 24.6 14.2 51 6.4 S 9 11 5 6 1014.5 1014.4 0.0
27/05:30am 24.9 24.1 14.1 51 6.4 SSE 11 11 6 6 1014.3 1014.2 0.0
27/05:00am 25.5 25.5 14.3 50 6.7 SSE 7 9 4 5 1014.2 1014.1 0.0
27/04:30am 25.4 25.1 14.5 51 6.5 SSE 9 11 5 6 1014.2 1014.1 0.0
27/04:00am 26.0 25.4 14.5 49 6.9 SSE 11 11 6 6 1014.1 1014.0 0.0
27/03:30am 26.4 25.8 14.5 48 7.1 SE 11 11 6 6 1014.2 1014.1 0.0
27/03:00am 27.8 26.5 14.8 45 7.9 SSE 15 19 8 10 1014.1 1014.0 0.0
27/02:30am 28.6 26.5 15.2 44 8.2 SE 20 26 11 14 1014.1 1014.0 0.0
27/02:00am 28.3 27.9 15.2 44 8.0 SE 11 17 6 9 1014.2 1014.1 0.0
27/01:30am 27.6 27.7 15.6 48 7.3 SE 9 13 5 7 1014.5 1014.4 0.0
27/01:00am 27.5 27.6 15.5 48 7.3 SSE 9 13 5 7 1014.5 1014.4 0.0
27/12:30am 27.3 27.1 15.6 48 7.1 SSE 11 15 6 8 1014.7 1014.6 0.0
27/12:00am 27.0 26.9 16.0 51 6.8 SSE 11 13 6 7 1014.7 1014.6 0.0
 
Date/Time
WST
Temp
°C
App
Temp
°C
Dew
Point
Rel
Hum
%
Delta-T
°C
Wind Press
QNH
hPa
Press
MSL
hPa
Rain
since 9 am
mm
Dir
 
Spd
km/h
Gust
km/h
Spd
kts
Gust
kts
26/11:30pm 27.6 28.1 16.6 51 6.8 S 9 11 5 6 1014.7 1014.6 0.0
26/11:00pm 28.0 28.5 16.6 50 7.1 SSW 9 11 5 6 1014.9 1014.8 0.0
26/10:30pm 28.7 29.1 16.3 47 7.7 SW 9 11 5 6 1014.9 1014.8 0.0
26/10:00pm 29.5 30.4 16.7 46 8.0 SW 7 9 4 5 1015.1 1015.0 0.0
26/09:30pm 30.4 30.8 16.4 43 8.8 SW 9 13 5 7 1015.0 1014.9 0.0
26/09:00pm 30.0 31.6 16.8 45 8.3 WSW 4 7 2 4 1014.9 1014.8 0.0
26/08:30pm 31.3 31.7 17.2 42 9.0 WSW 11 13 6 7 1014.6 1014.5 0.0
26/08:00pm 31.8 32.1 18.0 43 8.9 WSW 13 17 7 9 1014.2 1014.1 0.0
26/07:30pm 30.4 31.9 18.8 50 7.5 SW 9 17 5 9 1014.0 1013.9 0.0
26/07:00pm 31.0 32.0 19.4 50 7.6 NNW 13 15 7 8 1013.2 1013.2 0.0

Other Formats:

Comma delimited format used in spreadsheet applications
http://www.bom.gov.au/fwo/IDW60801/IDW60801.94308.axf

JavaScript Object Notation format (JSON) in row-major order
http://www.bom.gov.au/fwo/IDW60801/IDW60801.94308.json